Time;durP1;ratioP1;P1;durP2;ratioP2;P2;SDS_P1;SDS_P2;PMS_P1;PMS_P2;Temp;Humidity;BMP_temperature;BMP_pressure;BME280_temperature;BME280_humidity;BME280_pressure;Samples;Min_cycle;Max_cycle;Signal;HPM_P1;HPM_P2
2024/04/18 00:00:42;;;;;;;4.80;1.88;;;6.50;99.90;;;;;;5349786;26;20242;-66
2024/04/18 00:03:08;;;;;;;6.68;2.08;;;6.40;99.90;;;;;;5350183;26;20250;-65
2024/04/18 00:05:34;;;;;;;10.60;1.90;;;6.50;99.90;;;;;;5349738;26;20226;-67
2024/04/18 00:07:59;;;;;;;6.32;1.92;;;6.50;99.90;;;;;;5350518;26;20280;-67
2024/04/18 00:10:25;;;;;;;8.60;2.00;;;6.50;99.90;;;;;;5349718;26;20641;-67
2024/04/18 00:12:51;;;;;;;4.38;1.70;;;6.50;99.90;;;;;;5347184;26;20342;-67
2024/04/18 00:15:20;;;;;;;6.85;1.90;;;6.50;99.90;;;;;;5345843;26;20320;-68
2024/04/18 00:17:53;;;;;;;6.43;2.10;;;6.50;99.90;;;;;;5344957;26;20561;-66
2024/04/18 00:20:22;;;;;;;6.10;1.83;;;6.50;99.90;;;;;;5350757;26;20277;-67
2024/04/18 00:22:48;;;;;;;6.10;1.88;;;6.60;99.90;;;;;;5347161;26;20339;-67
2024/04/18 00:25:14;;;;;;;4.95;1.77;;;6.60;99.90;;;;;;5353789;26;20237;-67
2024/04/18 00:27:52;;;;;;;4.68;1.75;;;6.60;99.90;;;;;;5342735;26;21035;-68
2024/04/18 00:30:37;;;;;;;8.82;1.90;;;6.70;99.90;;;;;;5351817;26;20301;-67
2024/04/18 00:33:03;;;;;;;9.15;1.60;;;6.70;99.90;;;;;;5351392;26;20707;-68
2024/04/18 00:35:39;;;;;;;9.10;1.95;;;6.80;99.90;;;;;;5347551;26;20225;-68
2024/04/18 00:38:14;;;;;;;6.28;1.88;;;6.80;99.90;;;;;;5354884;26;20265;-66
2024/04/18 00:40:40;;;;;;;6.55;1.95;;;6.80;99.90;;;;;;5350362;26;20235;-67
2024/04/18 00:43:21;;;;;;;4.82;1.83;;;6.90;99.90;;;;;;5347788;26;20664;-66
2024/04/18 00:45:50;;;;;;;12.10;2.00;;;6.90;99.90;;;;;;5348381;26;20241;-67
2024/04/18 00:48:20;;;;;;;4.40;1.63;;;6.90;99.90;;;;;;5346145;26;20246;-66
2024/04/18 00:50:46;;;;;;;5.13;1.90;;;6.90;99.90;;;;;;5352058;26;20284;-66
2024/04/18 00:53:18;;;;;;;6.95;2.13;;;6.90;99.90;;;;;;5347548;26;20226;-66
2024/04/18 00:55:49;;;;;;;5.72;1.92;;;6.80;99.90;;;;;;5350462;26;20250;-67
2024/04/18 00:58:16;;;;;;;8.50;2.20;;;6.80;99.90;;;;;;5347246;26;20280;-68
2024/04/18 01:00:44;;;;;;;4.97;1.80;;;6.80;99.90;;;;;;5354552;26;21152;-68
2024/04/18 01:03:29;;;;;;;4.78;2.00;;;6.70;99.90;;;;;;5354195;26;20704;-67
2024/04/18 01:06:08;;;;;;;6.32;2.00;;;6.70;99.90;;;;;;5349929;26;20281;-67
2024/04/18 01:08:52;;;;;;;6.93;2.05;;;6.60;99.90;;;;;;5354889;26;20260;-68
2024/04/18 01:11:30;;;;;;;6.68;1.83;;;6.50;99.90;;;;;;5347114;26;20757;-66
2024/04/18 01:13:59;;;;;;;8.18;1.92;;;6.50;99.90;;;;;;5352025;26;20229;-67
2024/04/18 01:16:24;;;;;;;8.50;2.00;;;6.50;99.90;;;;;;5347630;26;20706;-66
2024/04/18 01:18:50;;;;;;;6.03;1.92;;;6.40;99.90;;;;;;5335779;26;20264;-68
2024/04/18 01:21:16;;;;;;;6.72;1.85;;;6.40;99.90;;;;;;5346879;26;20841;-67
2024/04/18 01:23:42;;;;;;;7.47;1.92;;;6.40;99.90;;;;;;5357442;26;20234;-67
2024/04/18 01:26:11;;;;;;;10.85;2.53;;;6.30;99.90;;;;;;5349388;26;20230;-69
2024/04/18 01:28:37;;;;;;;6.00;2.08;;;6.30;99.90;;;;;;5351760;26;20254;-66
2024/04/18 01:31:02;;;;;;;5.65;2.08;;;6.20;99.90;;;;;;5346564;26;20273;-67
2024/04/18 01:33:28;;;;;;;8.48;2.20;;;6.20;99.90;;;;;;5348924;26;20234;-66
2024/04/18 01:35:54;;;;;;;6.13;1.83;;;6.20;99.90;;;;;;5352243;26;20237;-66
2024/04/18 01:38:19;;;;;;;5.72;2.20;;;6.20;99.90;;;;;;5352473;26;20359;-67
2024/04/18 01:40:45;;;;;;;7.18;2.30;;;6.10;99.90;;;;;;5410256;26;20302;-67
2024/04/18 01:43:31;;;;;;;9.10;2.30;;;6.10;99.90;;;;;;5344106;26;20708;-66
2024/04/18 01:46:17;;;;;;;9.50;2.47;;;6.10;99.90;;;;;;5349314;26;20230;-67
2024/04/18 01:48:58;;;;;;;6.65;2.30;;;6.00;99.90;;;;;;5350520;26;23040;-64
2024/04/18 01:51:44;;;;;;;5.07;2.20;;;6.10;99.90;;;;;;5345886;26;20242;-67
2024/04/18 01:54:28;;;;;;;5.57;1.90;;;6.00;99.90;;;;;;5346127;26;20256;-68
2024/04/18 01:56:54;;;;;;;5.60;2.15;;;6.00;99.90;;;;;;5405060;26;20581;-66
2024/04/18 01:59:20;;;;;;;5.32;2.10;;;6.00;99.90;;;;;;5352575;26;20334;-67
2024/04/18 02:01:46;;;;;;;7.07;2.10;;;6.00;99.90;;;;;;5350674;26;20641;-66
2024/04/18 02:04:12;;;;;;;5.63;1.80;;;5.90;99.90;;;;;;5350374;26;20272;-66
2024/04/18 02:06:38;;;;;;;8.00;1.85;;;5.90;99.90;;;;;;5346359;26;20874;-67
2024/04/18 02:09:21;;;;;;;5.47;1.77;;;5.90;99.90;;;;;;5353389;26;20281;-66
2024/04/18 02:11:50;;;;;;;6.35;1.85;;;5.90;99.90;;;;;;5377119;26;20234;-68
2024/04/18 02:14:34;;;;;;;10.52;2.20;;;5.90;99.90;;;;;;5353765;26;20364;-67
2024/04/18 02:17:00;;;;;;;4.68;1.70;;;5.90;99.90;;;;;;5402718;26;20246;-65
2024/04/18 02:19:26;;;;;;;5.78;1.90;;;5.80;99.90;;;;;;5350600;26;20737;-66
2024/04/18 02:21:58;;;;;;;5.75;1.80;;;5.80;99.90;;;;;;5349286;26;20268;-68
2024/04/18 02:25:02;;;;;;;7.97;2.00;;;5.80;99.90;;;;;;5351286;26;20248;-67
2024/04/18 02:27:28;;;;;;;7.38;1.83;;;5.80;99.90;;;;;;5355826;26;20623;-66
2024/04/18 02:29:54;;;;;;;5.88;1.80;;;5.80;99.90;;;;;;5352613;26;20233;-65
2024/04/18 02:32:38;;;;;;;6.70;1.80;;;5.80;99.90;;;;;;5349839;26;20285;-67
2024/04/18 02:35:12;;;;;;;6.82;1.90;;;5.80;99.90;;;;;;5346185;26;20245;-66
2024/04/18 02:37:39;;;;;;;5.20;1.85;;;5.80;99.90;;;;;;5352334;26;20340;-67
2024/04/18 02:40:05;;;;;;;8.23;1.70;;;5.80;99.90;;;;;;5351317;26;20249;-67
2024/04/18 02:42:38;;;;;;;8.38;1.95;;;5.80;99.90;;;;;;5346929;26;20238;-67
2024/04/18 02:45:04;;;;;;;5.22;1.77;;;5.70;99.90;;;;;;5353886;26;20268;-68
2024/04/18 02:47:50;;;;;;;6.57;2.03;;;5.70;99.90;;;;;;5347044;26;20272;-67
2024/04/18 02:50:36;;;;;;;5.68;1.83;;;5.70;99.90;;;;;;5346396;26;20278;-68
2024/04/18 02:53:01;;;;;;;6.90;1.77;;;5.70;99.90;;;;;;5349767;26;20288;-67
2024/04/18 02:55:27;;;;;;;5.40;1.88;;;5.70;99.90;;;;;;5353044;26;20575;-67
2024/04/18 02:57:55;;;;;;;7.80;1.95;;;5.60;99.90;;;;;;5352343;26;20231;-67
2024/04/18 03:00:21;;;;;;;5.53;1.80;;;5.60;99.90;;;;;;5352883;26;20281;-67
2024/04/18 03:03:06;;;;;;;5.60;1.67;;;5.60;99.90;;;;;;5356710;26;20773;-68
2024/04/18 03:05:32;;;;;;;5.03;1.75;;;5.60;99.90;;;;;;5349156;26;20298;-68
2024/04/18 03:07:58;;;;;;;5.40;1.88;;;5.60;99.90;;;;;;5346161;26;20230;-67
2024/04/18 03:10:49;;;;;;;12.82;2.30;;;5.60;99.90;;;;;;5346565;26;20719;-67
2024/04/18 03:13:35;;;;;;;4.65;1.60;;;5.50;99.90;;;;;;5351019;26;20277;-67
2024/04/18 03:16:21;;;;;;;4.65;1.63;;;5.50;99.90;;;;;;5352759;26;20333;-66
2024/04/18 03:18:46;;;;;;;6.07;1.88;;;5.50;99.90;;;;;;5351376;26;20712;-67
2024/04/18 03:21:15;;;;;;;4.88;1.77;;;5.50;99.90;;;;;;5354465;26;20331;-68
2024/04/18 03:23:41;;;;;;;10.82;2.10;;;5.50;99.90;;;;;;5354756;26;20783;-67
2024/04/18 03:26:06;;;;;;;6.30;1.90;;;5.50;99.90;;;;;;5348321;26;20246;-66
2024/04/18 03:28:32;;;;;;;6.85;1.80;;;5.50;99.90;;;;;;5353079;26;20226;-67
2024/04/18 03:31:02;;;;;;;5.03;1.77;;;5.40;99.90;;;;;;5351520;26;20355;-67
2024/04/18 03:33:28;;;;;;;6.60;1.88;;;5.40;99.90;;;;;;5348464;26;20272;-67
2024/04/18 03:35:54;;;;;;;10.57;1.88;;;5.40;99.90;;;;;;5352036;26;20680;-67
2024/04/18 03:38:19;;;;;;;7.05;1.75;;;5.40;99.90;;;;;;5351982;26;20245;-67
2024/04/18 03:40:57;;;;;;;4.20;1.60;;;5.40;99.90;;;;;;5349191;26;20597;-67
2024/04/18 03:43:23;;;;;;;5.80;1.60;;;5.40;99.90;;;;;;5348853;26;20260;-69
2024/04/18 03:45:59;;;;;;;4.28;1.70;;;5.40;99.90;;;;;;5352573;26;20276;-68
2024/04/18 03:48:25;;;;;;;6.05;1.60;;;5.40;99.90;;;;;;5354575;26;20561;-67
2024/04/18 03:50:51;;;;;;;10.13;1.65;;;5.40;99.90;;;;;;5349696;26;20281;-67
2024/04/18 03:53:21;;;;;;;7.18;1.83;;;5.40;99.90;;;;;;5354089;26;21065;-68
2024/04/18 03:55:46;;;;;;;7.07;1.45;;;5.40;99.90;;;;;;5350570;26;20246;-67
2024/04/18 03:58:12;;;;;;;4.35;1.50;;;5.40;99.90;;;;;;5351795;26;20967;-66
2024/04/18 04:00:47;;;;;;;2.72;1.50;;;5.40;99.90;;;;;;5346453;26;20222;-69
2024/04/18 04:03:13;;;;;;;6.70;1.90;;;5.40;99.90;;;;;;5352044;26;20320;-68
2024/04/18 04:05:39;;;;;;;6.55;2.00;;;5.40;99.90;;;;;;5348586;26;20742;-68
2024/04/18 04:08:05;;;;;;;5.13;1.50;;;5.40;99.90;;;;;;5355298;26;21065;-66
2024/04/18 04:10:41;;;;;;;6.22;1.60;;;5.40;99.90;;;;;;5349531;26;20581;-67
2024/04/18 04:13:07;;;;;;;5.07;1.40;;;5.40;99.90;;;;;;5346951;26;20280;-68
2024/04/18 04:15:46;;;;;;;4.97;1.45;;;5.40;99.90;;;;;;5353496;26;20280;-65
2024/04/18 04:18:33;;;;;;;4.80;1.50;;;5.50;99.90;;;;;;5354182;26;20238;-67
2024/04/18 04:21:19;;;;;;;7.68;1.60;;;5.50;99.90;;;;;;5356148;26;20241;-65
2024/04/18 04:23:44;;;;;;;4.95;1.60;;;5.50;99.90;;;;;;5351703;26;20997;-67
2024/04/18 04:26:10;;;;;;;5.25;1.50;;;5.50;99.90;;;;;;5352508;26;20234;-67
2024/04/18 04:28:36;;;;;;;6.75;1.92;;;5.50;99.90;;;;;;5356364;26;20729;-67
2024/04/18 04:31:01;;;;;;;4.32;1.40;;;5.50;99.90;;;;;;5351511;26;20242;-65
2024/04/18 04:33:31;;;;;;;6.82;1.60;;;5.50;99.90;;;;;;5408823;26;20284;-68
2024/04/18 04:35:56;;;;;;;7.03;1.70;;;5.50;99.90;;;;;;5351882;26;20288;-67
2024/04/18 04:38:23;;;;;;;6.78;1.83;;;5.60;99.90;;;;;;5345932;26;20717;-67
2024/04/18 04:40:49;;;;;;;6.03;1.67;;;5.60;99.90;;;;;;5351566;26;20230;-67
2024/04/18 04:43:14;;;;;;;5.15;1.60;;;5.60;99.90;;;;;;5349762;26;20356;-66
2024/04/18 04:45:40;;;;;;;7.55;1.67;;;5.60;99.90;;;;;;5356891;26;20379;-66
2024/04/18 04:48:06;;;;;;;5.30;1.55;;;5.60;99.90;;;;;;5350055;26;20230;-66
2024/04/18 04:50:32;;;;;;;5.70;1.60;;;5.60;99.90;;;;;;5350455;26;20331;-67
2024/04/18 04:53:10;;;;;;;8.80;1.73;;;5.60;99.90;;;;;;5349103;26;20275;-68
2024/04/18 04:55:57;;;;;;;12.23;1.77;;;5.60;99.90;;;;;;5352870;26;20593;-66
2024/04/18 04:58:23;;;;;;;3.80;1.50;;;5.60;99.90;;;;;;5341552;26;20939;-68
2024/04/18 05:00:49;;;;;;;4.82;1.30;;;5.70;99.90;;;;;;5345311;26;20735;-66
2024/04/18 05:03:34;;;;;;;4.57;1.55;;;5.70;99.90;;;;;;5348016;26;20239;-66
2024/04/18 05:06:19;;;;;;;4.30;1.50;;;5.80;99.90;;;;;;5348584;26;20281;-66
2024/04/18 05:09:06;;;;;;;3.92;1.40;;;5.80;99.90;;;;;;5352373;26;20267;-67
2024/04/18 05:11:31;;;;;;;8.80;1.90;;;5.90;99.90;;;;;;5352810;26;20223;-68
2024/04/18 05:13:57;;;;;;;6.97;1.70;;;5.90;99.90;;;;;;5379116;26;20293;-65
2024/04/18 05:16:43;;;;;;;4.25;1.90;;;5.90;99.90;;;;;;5396272;26;20225;-66
2024/04/18 05:19:11;;;;;;;3.85;1.52;;;6.00;99.90;;;;;;5348588;26;20355;-67
2024/04/18 05:21:37;;;;;;;6.07;1.73;;;6.10;99.90;;;;;;5352929;26;20233;-67
2024/04/18 05:24:21;;;;;;;5.93;1.92;;;6.20;99.90;;;;;;5394960;26;20273;-66
2024/04/18 05:26:47;;;;;;;10.38;2.10;;;6.30;99.90;;;;;;5349918;26;20699;-66
2024/04/18 05:31:59;;;;;;;8.88;1.88;;;6.40;99.90;;;;;;5352561;26;20275;-66
2024/04/18 05:34:25;;;;;;;5.65;2.00;;;6.50;99.90;;;;;;5404872;26;20268;-67
2024/04/18 05:36:51;;;;;;;8.00;2.20;;;6.60;99.90;;;;;;5344370;26;20289;-67
2024/04/18 05:39:17;;;;;;;9.70;2.10;;;6.70;99.90;;;;;;5349956;26;21401;-66
2024/04/18 05:41:42;;;;;;;6.32;2.00;;;6.80;99.90;;;;;;5348771;26;20277;-68
2024/04/18 05:44:29;;;;;;;9.88;2.28;;;6.80;99.90;;;;;;5391889;26;20343;-67
2024/04/18 05:46:54;;;;;;;3.63;1.90;;;6.90;99.90;;;;;;5348038;26;20334;-67
2024/04/18 05:49:21;;;;;;;5.78;2.00;;;6.90;99.90;;;;;;5347484;26;20644;-66
2024/04/18 05:51:47;;;;;;;11.40;2.30;;;6.90;99.90;;;;;;5348997;26;20344;-68
2024/04/18 05:54:31;;;;;;;14.32;2.00;;;6.90;99.90;;;;;;5347615;26;20796;-66
2024/04/18 05:57:06;;;;;;;5.50;2.03;;;6.90;99.90;;;;;;5347412;26;20230;-67
2024/04/18 05:59:51;;;;;;;7.43;2.00;;;6.90;99.90;;;;;;5346417;26;20552;-68
2024/04/18 06:02:17;;;;;;;5.85;2.40;;;6.90;99.90;;;;;;5341595;26;20241;-67
2024/04/18 06:04:43;;;;;;;11.35;2.15;;;6.90;99.90;;;;;;5340712;26;20237;-67
2024/04/18 06:07:28;;;;;;;7.13;2.10;;;6.80;99.90;;;;;;5348089;26;20281;-66
2024/04/18 06:09:53;;;;;;;8.10;2.20;;;6.80;99.90;;;;;;5348533;26;20229;-67
2024/04/18 06:12:19;;;;;;;7.60;1.98;;;6.90;99.90;;;;;;5349229;26;20311;-67
2024/04/18 06:14:45;;;;;;;7.03;2.08;;;7.00;99.90;;;;;;5348935;26;20234;-67
2024/04/18 06:17:11;;;;;;;4.18;1.80;;;7.00;99.90;;;;;;5350054;26;20280;-67
2024/04/18 06:19:49;;;;;;;6.95;2.35;;;7.10;99.90;;;;;;5344680;26;20718;-68
2024/04/18 06:22:35;;;;;;;12.02;2.15;;;7.20;99.90;;;;;;5344166;26;20285;-67
2024/04/18 06:25:20;;;;;;;6.30;1.90;;;7.40;99.90;;;;;;5344938;26;20271;-67
2024/04/18 06:28:12;;;;;;;10.70;2.17;;;7.50;99.90;;;;;;5348863;26;20319;-69
2024/04/18 06:30:41;;;;;;;7.90;1.90;;;7.60;99.90;;;;;;5356615;26;20244;-67
2024/04/18 06:33:10;;;;;;;6.65;2.05;;;7.70;99.90;;;;;;5350727;26;20225;-67
2024/04/18 06:35:36;;;;;;;8.30;2.42;;;7.80;99.90;;;;;;5350950;26;20323;-67
2024/04/18 06:38:02;;;;;;;6.47;2.05;;;7.90;99.90;;;;;;5356503;26;20230;-67
2024/04/18 06:40:28;;;;;;;10.20;2.10;;;7.90;99.90;;;;;;5350899;26;20238;-68
2024/04/18 06:42:55;;;;;;;7.72;2.13;;;8.00;99.90;;;;;;5349562;26;20291;-67
2024/04/18 06:45:24;;;;;;;5.38;1.70;;;8.10;99.90;;;;;;5349101;26;20235;-67
2024/04/18 06:47:50;;;;;;;8.20;2.00;;;8.30;99.90;;;;;;5347649;26;20328;-65
2024/04/18 06:50:17;;;;;;;10.93;2.40;;;8.50;99.90;;;;;;5350794;26;20249;-66
2024/04/18 06:52:43;;;;;;;7.88;2.10;;;8.60;99.90;;;;;;5348759;26;20273;-66
2024/04/18 06:55:08;;;;;;;6.72;2.22;;;8.80;99.90;;;;;;5347599;26;20242;-68
2024/04/18 06:57:44;;;;;;;5.80;2.00;;;8.90;99.90;;;;;;5347469;26;20351;-68
2024/04/18 07:00:10;;;;;;;7.85;2.40;;;9.10;99.90;;;;;;5349056;26;20750;-68
2024/04/18 07:02:37;;;;;;;5.78;1.75;;;9.10;99.90;;;;;;5353831;26;20292;-67
2024/04/18 07:05:21;;;;;;;10.02;2.05;;;9.20;99.90;;;;;;5356067;26;20352;-67
2024/04/18 07:07:52;;;;;;;7.63;2.03;;;9.10;99.90;;;;;;5347256;26;20794;-66
2024/04/18 07:10:30;;;;;;;7.95;2.10;;;9.10;99.90;;;;;;5353350;26;20767;-66
2024/04/18 07:12:56;;;;;;;4.88;1.92;;;9.10;99.90;;;;;;5337246;26;20687;-67
2024/04/18 07:15:21;;;;;;;5.40;1.83;;;9.10;99.90;;;;;;5354394;26;20226;-68
2024/04/18 07:18:07;;;;;;;5.35;1.65;;;9.20;99.90;;;;;;5349313;26;22172;-75
2024/04/18 07:20:33;;;;;;;11.38;1.90;;;9.30;99.90;;;;;;5350209;26;20281;-66
2024/04/18 07:23:05;;;;;;;7.05;1.70;;;9.40;99.90;;;;;;5355498;26;20230;-68
2024/04/18 07:25:31;;;;;;;8.05;2.25;;;9.50;99.90;;;;;;5346391;26;20229;-66
2024/04/18 07:27:57;;;;;;;6.78;1.67;;;9.70;99.90;;;;;;5349375;26;20314;-67
2024/04/18 07:30:23;;;;;;;5.70;1.70;;;9.90;99.90;;;;;;5351856;26;20238;-66
2024/04/18 07:32:51;;;;;;;8.32;2.00;;;10.00;99.90;;;;;;5403500;26;20238;-66
2024/04/18 07:35:36;;;;;;;8.00;1.90;;;10.00;99.90;;;;;;5390297;26;20299;-66
2024/04/18 07:38:02;;;;;;;5.50;1.80;;;10.10;99.90;;;;;;5349377;26;20234;-66
2024/04/18 07:40:28;;;;;;;5.25;1.50;;;10.10;99.90;;;;;;5382323;26;20243;-67
2024/04/18 07:42:54;;;;;;;4.28;1.60;;;10.10;99.90;;;;;;5376046;26;20233;-67
2024/04/18 07:45:21;;;;;;;5.13;2.08;;;10.10;99.90;;;;;;5345137;26;20652;-66
2024/04/18 07:47:46;;;;;;;5.90;1.50;;;10.10;99.90;;;;;;5354668;26;20237;-66
2024/04/18 07:50:12;;;;;;;5.55;1.40;;;10.20;99.90;;;;;;5349926;26;20238;-67
2024/04/18 07:52:41;;;;;;;4.20;1.42;;;10.20;99.90;;;;;;5351049;26;20817;-68
2024/04/18 07:55:06;;;;;;;5.72;1.60;;;10.30;99.90;;;;;;5349739;26;20288;-66
2024/04/18 07:57:32;;;;;;;4.18;1.65;;;10.40;99.90;;;;;;5349426;26;20237;-67
2024/04/18 07:59:58;;;;;;;6.40;1.58;;;10.50;99.90;;;;;;5350362;26;20600;-69
2024/04/18 08:02:24;;;;;;;8.30;1.50;;;10.50;99.90;;;;;;5346929;26;20238;-66
2024/04/18 08:04:49;;;;;;;4.60;1.33;;;10.50;99.90;;;;;;5343992;26;20341;-67
2024/04/18 08:07:15;;;;;;;4.55;1.35;;;10.50;99.90;;;;;;5348258;26;20281;-68
2024/04/18 08:09:41;;;;;;;3.85;1.20;;;10.50;99.90;;;;;;5345587;26;20241;-67
2024/04/18 08:12:07;;;;;;;3.97;1.23;;;10.50;99.90;;;;;;5348339;26;20285;-68
2024/04/18 08:14:32;;;;;;;3.75;1.40;;;10.50;99.90;;;;;;5348342;26;20276;-67
2024/04/18 08:16:58;;;;;;;4.88;1.20;;;10.60;99.90;;;;;;5348396;26;20672;-69
2024/04/18 08:19:24;;;;;;;4.43;1.30;;;10.80;99.90;;;;;;5348115;26;20256;-66
2024/04/18 08:21:49;;;;;;;3.35;1.20;;;11.00;99.90;;;;;;5346817;26;20276;-67
2024/04/18 08:24:26;;;;;;;6.82;1.55;;;11.00;99.90;;;;;;5352099;26;20234;-67
2024/04/18 08:26:52;;;;;;;6.47;1.50;;;11.00;99.90;;;;;;5348073;26;20300;-65
2024/04/18 08:29:22;;;;;;;6.38;1.42;;;11.00;99.90;;;;;;5348773;26;20238;-67
2024/04/18 08:31:49;;;;;;;5.25;1.30;;;10.90;99.90;;;;;;5349475;26;20715;-66
2024/04/18 08:34:14;;;;;;;4.43;1.00;;;10.90;99.90;;;;;;5346560;26;20246;-67
2024/04/18 08:36:40;;;;;;;5.30;1.33;;;10.80;99.90;;;;;;5345537;26;20309;-66
2024/04/18 08:39:06;;;;;;;4.47;1.52;;;10.70;99.90;;;;;;5348759;26;20668;-67
2024/04/18 08:41:33;;;;;;;6.28;1.30;;;10.70;99.90;;;;;;5345970;26;20298;-67
2024/04/18 08:44:01;;;;;;;4.28;1.23;;;10.70;99.90;;;;;;5352309;26;20292;-68
2024/04/18 08:46:27;;;;;;;4.45;1.15;;;10.70;99.90;;;;;;5350045;26;20238;-66
2024/04/18 08:48:53;;;;;;;3.55;1.00;;;10.80;99.90;;;;;;5346049;26;20372;-66
2024/04/18 08:51:19;;;;;;;8.25;1.38;;;10.90;99.90;;;;;;5350020;26;20238;-69
2024/04/18 08:53:46;;;;;;;3.67;1.30;;;11.10;99.90;;;;;;5349508;26;20609;-67
2024/04/18 08:56:14;;;;;;;6.97;1.50;;;11.20;99.90;;;;;;5347653;26;20243;-67
2024/04/18 08:58:40;;;;;;;2.90;1.30;;;11.30;99.90;;;;;;5347396;26;20338;-68
2024/04/18 09:01:06;;;;;;;5.10;1.40;;;11.40;99.90;;;;;;5412232;26;21397;-67
2024/04/18 09:03:33;;;;;;;6.63;1.40;;;11.40;99.90;;;;;;5347635;26;20288;-68
2024/04/18 09:05:58;;;;;;;6.45;1.70;;;11.40;99.90;;;;;;5346933;26;20726;-67
2024/04/18 09:08:24;;;;;;;2.33;1.10;;;11.20;99.90;;;;;;5353504;26;20230;-67
2024/04/18 09:10:52;;;;;;;6.05;1.40;;;11.10;99.90;;;;;;5348173;26;20240;-67
2024/04/18 09:13:19;;;;;;;4.82;1.48;;;11.00;99.90;;;;;;5347677;26;20238;-69
2024/04/18 09:15:45;;;;;;;5.97;1.85;;;10.90;99.90;;;;;;5341901;26;20285;-68
2024/04/18 09:18:11;;;;;;;6.43;1.75;;;10.90;99.90;;;;;;5351176;26;20238;-67
2024/04/18 09:20:38;;;;;;;3.30;1.00;;;11.00;99.90;;;;;;5349967;26;20598;-67
2024/04/18 09:23:04;;;;;;;5.90;1.30;;;11.10;99.90;;;;;;5347176;26;20692;-69
2024/04/18 09:25:33;;;;;;;4.28;1.20;;;11.20;99.90;;;;;;5355386;26;20279;-68
2024/04/18 09:27:59;;;;;;;5.38;1.20;;;11.40;99.90;;;;;;5349491;26;20282;-67
2024/04/18 09:30:25;;;;;;;4.18;1.27;;;11.50;99.90;;;;;;5349383;26;20326;-67
2024/04/18 09:32:51;;;;;;;3.72;1.10;;;11.70;99.90;;;;;;5344813;26;20844;-67
2024/04/18 09:35:17;;;;;;;4.22;1.20;;;11.80;99.90;;;;;;5348193;26;20338;-69
2024/04/18 09:37:44;;;;;;;7.15;1.38;;;12.00;99.90;;;;;;5408073;26;20246;-67
2024/04/18 09:40:11;;;;;;;5.20;1.30;;;12.20;99.90;;;;;;5351649;26;20234;-67
2024/04/18 09:42:56;;;;;;;4.68;1.20;;;12.40;99.90;;;;;;5342518;26;20242;-68
2024/04/18 09:45:26;;;;;;;4.93;1.15;;;12.30;99.90;;;;;;5348283;26;20245;-68
2024/04/18 09:47:52;;;;;;;4.63;1.23;;;12.30;99.90;;;;;;5352251;26;20374;-68
2024/04/18 09:50:18;;;;;;;5.68;1.20;;;12.30;99.90;;;;;;5348553;26;20272;-68
2024/04/18 09:52:49;;;;;;;5.57;1.58;;;12.30;99.90;;;;;;5319565;26;20261;-68
2024/04/18 09:55:16;;;;;;;7.30;1.38;;;12.40;99.90;;;;;;5345665;26;20241;-67
2024/04/18 09:57:43;;;;;;;6.38;1.50;;;12.40;99.90;;;;;;5352064;26;20300;-68
2024/04/18 10:00:11;;;;;;;4.03;1.38;;;12.30;99.90;;;;;;5370685;26;20247;-68
2024/04/18 10:02:38;;;;;;;8.15;1.63;;;12.40;99.90;;;;;;5345157;26;20283;-67
2024/04/18 10:05:04;;;;;;;6.70;1.50;;;12.30;99.90;;;;;;5345732;26;20245;-68
2024/04/18 10:07:32;;;;;;;4.20;1.58;;;12.30;99.90;;;;;;5344400;26;20359;-67
2024/04/18 10:09:59;;;;;;;7.28;1.67;;;12.20;99.90;;;;;;5347486;26;20367;-68
2024/04/18 10:12:32;;;;;;;8.30;1.73;;;12.10;99.90;;;;;;5349181;26;21326;-67
2024/04/18 10:14:59;;;;;;;8.00;1.80;;;12.00;99.90;;;;;;5351477;26;20242;-68
2024/04/18 10:17:32;;;;;;;4.97;1.48;;;12.00;99.90;;;;;;5348668;26;20241;-67
2024/04/18 10:20:06;;;;;;;8.07;1.80;;;12.00;99.90;;;;;;5344095;26;20242;-65
2024/04/18 10:22:34;;;;;;;7.40;2.08;;;12.00;99.90;;;;;;5344104;26;20288;-68
2024/04/18 10:25:02;;;;;;;7.22;1.77;;;12.00;99.90;;;;;;5350441;26;20254;-67
2024/04/18 10:27:28;;;;;;;6.00;1.67;;;12.00;99.90;;;;;;5345605;26;20250;-68
2024/04/18 10:29:57;;;;;;;4.22;1.50;;;12.00;99.90;;;;;;5348572;26;21217;-66
2024/04/18 10:32:32;;;;;;;3.47;1.30;;;12.10;99.90;;;;;;5359856;26;20273;-67
2024/04/18 10:34:59;;;;;;;3.25;1.35;;;12.00;99.90;;;;;;5345506;26;20280;-70
2024/04/18 10:37:24;;;;;;;4.85;1.08;;;12.00;99.90;;;;;;5345211;26;20258;-67
2024/04/18 10:39:52;;;;;;;6.22;1.33;;;12.10;99.90;;;;;;5346296;26;20285;-68
2024/04/18 10:42:22;;;;;;;4.30;1.33;;;12.20;99.90;;;;;;5361691;26;20258;-68
2024/04/18 10:44:48;;;;;;;5.30;1.52;;;12.20;99.90;;;;;;5361294;26;21340;-67
2024/04/18 10:47:18;;;;;;;7.35;1.38;;;12.20;99.90;;;;;;5358160;26;20293;-66
2024/04/18 10:49:45;;;;;;;6.25;1.35;;;12.20;99.90;;;;;;5344702;26;20247;-67
2024/04/18 10:52:14;;;;;;;7.95;1.98;;;12.10;99.90;;;;;;5348882;26;20318;-67
2024/04/18 10:54:40;;;;;;;6.22;1.35;;;12.10;99.90;;;;;;5346027;26;20300;-68
2024/04/18 10:57:07;;;;;;;7.80;1.35;;;12.10;99.90;;;;;;5345386;26;20234;-65
2024/04/18 10:59:43;;;;;;;4.70;1.42;;;12.10;99.90;;;;;;5348405;26;20242;-67
2024/04/18 11:02:12;;;;;;;5.10;1.58;;;12.00;99.90;;;;;;5354739;26;20233;-70
2024/04/18 11:04:37;;;;;;;4.10;1.50;;;12.00;99.90;;;;;;5345357;26;20250;-67
2024/04/18 11:07:03;;;;;;;10.63;1.83;;;11.90;99.90;;;;;;5355354;26;20977;-68
2024/04/18 11:09:31;;;;;;;8.02;1.55;;;11.80;99.90;;;;;;5346061;26;20588;-67
2024/04/18 11:11:57;;;;;;;4.32;1.48;;;11.70;99.90;;;;;;5346462;26;20248;-67
2024/04/18 11:14:25;;;;;;;8.05;1.77;;;11.80;99.90;;;;;;5352075;26;20276;-67
2024/04/18 11:17:00;;;;;;;8.80;1.42;;;11.90;99.90;;;;;;5343632;26;20350;-66
2024/04/18 11:19:29;;;;;;;5.32;1.67;;;11.90;99.90;;;;;;5347071;26;20631;-66
2024/04/18 11:21:58;;;;;;;7.97;1.60;;;11.90;99.90;;;;;;5345044;26;20381;-68
2024/04/18 11:24:24;;;;;;;7.00;1.50;;;12.00;99.90;;;;;;5344077;26;20234;-67
2024/04/18 11:26:50;;;;;;;6.93;1.50;;;12.10;99.90;;;;;;5348693;26;20243;-67
2024/04/18 11:29:16;;;;;;;6.40;1.45;;;12.10;99.90;;;;;;5345932;26;20238;-66
2024/04/18 11:31:41;;;;;;;8.98;1.77;;;12.20;99.90;;;;;;5342846;26;20235;-67
2024/04/18 11:34:07;;;;;;;4.60;1.40;;;12.20;99.90;;;;;;5345980;26;20417;-68
2024/04/18 11:36:33;;;;;;;11.20;1.60;;;12.30;99.90;;;;;;5347168;26;20761;-67
2024/04/18 11:39:02;;;;;;;8.05;1.60;;;12.30;99.90;;;;;;5373066;26;20226;-68
2024/04/18 11:41:30;;;;;;;8.85;1.60;;;12.30;99.90;;;;;;5347067;26;20246;-67
2024/04/18 11:43:56;;;;;;;7.05;1.85;;;12.30;99.90;;;;;;5344762;26;20242;-68
2024/04/18 11:46:23;;;;;;;6.35;1.60;;;12.30;99.90;;;;;;5347445;26;20234;-67
2024/04/18 11:48:48;;;;;;;5.13;1.50;;;12.40;99.90;;;;;;5347021;26;21342;-67
2024/04/18 11:51:15;;;;;;;8.75;1.70;;;12.60;99.90;;;;;;5377017;26;20237;-67
2024/04/18 11:53:41;;;;;;;3.90;1.38;;;12.70;99.90;;;;;;5346134;26;20233;-66
2024/04/18 11:56:26;;;;;;;7.32;1.40;;;12.80;99.90;;;;;;5345305;26;20773;-66
2024/04/18 11:58:57;;;;;;;11.68;2.00;;;12.80;99.90;;;;;;5350407;26;20294;-68
2024/04/18 12:01:30;;;;;;;7.20;1.90;;;12.80;99.90;;;;;;5353993;26;20297;-67
2024/04/18 12:04:16;;;;;;;9.63;1.80;;;12.80;99.90;;;;;;5346410;26;20238;-67
2024/04/18 12:06:41;;;;;;;7.18;1.35;;;12.80;99.90;;;;;;5345015;26;20344;-67
2024/04/18 12:09:25;;;;;;;10.43;1.65;;;12.80;99.90;;;;;;5330047;26;20334;-68
2024/04/18 12:11:51;;;;;;;6.10;1.80;;;12.90;99.90;;;;;;5352802;26;21042;-67
2024/04/18 12:14:17;;;;;;;10.23;1.92;;;13.00;99.90;;;;;;5352869;26;20326;-68
2024/04/18 12:16:55;;;;;;;9.45;1.77;;;13.10;99.90;;;;;;5348407;26;20268;-67
2024/04/18 12:19:39;;;;;;;12.40;1.70;;;13.20;99.90;;;;;;5353218;26;20234;-67
2024/04/18 12:22:10;;;;;;;7.55;1.58;;;13.20;99.90;;;;;;5346516;26;20355;-68
2024/04/18 12:24:36;;;;;;;7.43;1.50;;;13.10;99.90;;;;;;5375673;26;20249;-67
2024/04/18 12:27:08;;;;;;;5.32;1.35;;;13.00;99.90;;;;;;5348066;26;20234;-68
2024/04/18 12:29:52;;;;;;;5.15;1.67;;;12.90;99.90;;;;;;5345480;26;20260;-67
2024/04/18 12:32:21;;;;;;;5.68;1.48;;;12.80;99.90;;;;;;5346645;26;20237;-68
2024/04/18 12:34:51;;;;;;;8.73;1.90;;;12.90;99.90;;;;;;5344153;26;20233;-67
2024/04/18 12:37:16;;;;;;;9.18;1.73;;;13.10;99.90;;;;;;5342361;26;20735;-68
2024/04/18 12:39:47;;;;;;;5.97;1.45;;;13.10;99.90;;;;;;5351401;26;20273;-66
2024/04/18 12:42:25;;;;;;;7.60;1.73;;;13.00;99.90;;;;;;5344287;26;21840;-68
2024/04/18 12:44:51;;;;;;;12.82;1.98;;;12.90;99.90;;;;;;5345389;26;20317;-67
2024/04/18 12:47:20;;;;;;;7.75;1.70;;;12.80;99.90;;;;;;5353673;26;20277;-67
2024/04/18 12:49:46;;;;;;;9.80;2.33;;;12.80;99.90;;;;;;5350535;26;20272;-68
2024/04/18 12:52:15;;;;;;;10.13;1.73;;;12.90;99.90;;;;;;5352029;26;20289;-67
2024/04/18 12:54:42;;;;;;;10.93;1.80;;;13.00;99.90;;;;;;5349800;26;20831;-67
2024/04/18 12:57:20;;;;;;;7.70;1.65;;;13.00;99.90;;;;;;5353738;26;20237;-67
2024/04/18 13:00:05;;;;;;;12.07;1.98;;;12.90;99.90;;;;;;5407598;26;20703;-68
2024/04/18 13:02:51;;;;;;;14.30;2.38;;;12.80;99.90;;;;;;5350421;26;20764;-66
2024/04/18 13:05:33;;;;;;;11.77;1.75;;;12.70;99.90;;;;;;5343245;26;20246;-65
2024/04/18 13:08:05;;;;;;;10.73;1.70;;;12.70;99.90;;;;;;5347177;26;20282;-67